sensor_id;sensor_type;location;lat;lon;timestamp;P1;durP1;ratioP1;P2;durP2;ratioP2
55497;SDS011;41357;52.806;18.268;2023-11-22T00:02:03;5.93;;;3.63;;
55497;SDS011;41357;52.806;18.268;2023-11-22T00:04:29;5.28;;;2.63;;
55497;SDS011;41357;52.806;18.268;2023-11-22T00:06:56;8.55;;;3.22;;
55497;SDS011;41357;52.806;18.268;2023-11-22T00:09:22;4.78;;;2.72;;
55497;SDS011;41357;52.806;18.268;2023-11-22T00:11:48;7.70;;;3.33;;
55497;SDS011;41357;52.806;18.268;2023-11-22T00:14:15;7.30;;;3.05;;
55497;SDS011;41357;52.806;18.268;2023-11-22T00:16:41;6.32;;;3.45;;
55497;SDS011;41357;52.806;18.268;2023-11-22T00:19:08;9.75;;;4.07;;
55497;SDS011;41357;52.806;18.268;2023-11-22T00:21:34;9.20;;;3.28;;
55497;SDS011;41357;52.806;18.268;2023-11-22T00:24:00;7.40;;;3.30;;
55497;SDS011;41357;52.806;18.268;2023-11-22T00:26:27;8.48;;;4.32;;
55497;SDS011;41357;52.806;18.268;2023-11-22T00:28:53;5.60;;;2.78;;
55497;SDS011;41357;52.806;18.268;2023-11-22T00:31:19;9.88;;;3.95;;
55497;SDS011;41357;52.806;18.268;2023-11-22T00:33:45;9.73;;;4.03;;
55497;SDS011;41357;52.806;18.268;2023-11-22T00:36:11;10.40;;;4.38;;
55497;SDS011;41357;52.806;18.268;2023-11-22T00:38:37;6.38;;;3.65;;
55497;SDS011;41357;52.806;18.268;2023-11-22T00:41:04;7.90;;;3.42;;
55497;SDS011;41357;52.806;18.268;2023-11-22T00:43:32;6.97;;;3.63;;
55497;SDS011;41357;52.806;18.268;2023-11-22T00:45:58;8.85;;;3.50;;
55497;SDS011;41357;52.806;18.268;2023-11-22T00:48:24;6.43;;;3.25;;
55497;SDS011;41357;52.806;18.268;2023-11-22T00:50:50;10.50;;;4.38;;
55497;SDS011;41357;52.806;18.268;2023-11-22T00:53:17;13.18;;;4.88;;
55497;SDS011;41357;52.806;18.268;2023-11-22T00:55:43;9.73;;;4.70;;
55497;SDS011;41357;52.806;18.268;2023-11-22T00:58:09;11.80;;;4.22;;
55497;SDS011;41357;52.806;18.268;2023-11-22T01:00:35;14.02;;;5.03;;
55497;SDS011;41357;52.806;18.268;2023-11-22T01:03:01;14.43;;;5.32;;
55497;SDS011;41357;52.806;18.268;2023-11-22T01:05:30;11.80;;;4.93;;
55497;SDS011;41357;52.806;18.268;2023-11-22T01:07:56;13.82;;;4.57;;
55497;SDS011;41357;52.806;18.268;2023-11-22T01:10:22;11.10;;;4.35;;
55497;SDS011;41357;52.806;18.268;2023-11-22T01:12:48;16.67;;;5.68;;
55497;SDS011;41357;52.806;18.268;2023-11-22T01:15:14;4.68;;;2.95;;
55497;SDS011;41357;52.806;18.268;2023-11-22T01:17:40;9.45;;;4.45;;
55497;SDS011;41357;52.806;18.268;2023-11-22T01:20:07;15.90;;;5.60;;
55497;SDS011;41357;52.806;18.268;2023-11-22T01:22:35;12.38;;;5.15;;
55497;SDS011;41357;52.806;18.268;2023-11-22T01:25:03;13.48;;;4.43;;
55497;SDS011;41357;52.806;18.268;2023-11-22T01:27:29;11.88;;;4.80;;
55497;SDS011;41357;52.806;18.268;2023-11-22T01:29:55;17.05;;;5.25;;
55497;SDS011;41357;52.806;18.268;2023-11-22T01:32:22;11.85;;;4.30;;
55497;SDS011;41357;52.806;18.268;2023-11-22T01:34:49;10.93;;;4.85;;
55497;SDS011;41357;52.806;18.268;2023-11-22T01:37:15;10.25;;;5.15;;
55497;SDS011;41357;52.806;18.268;2023-11-22T01:39:41;11.35;;;4.95;;
55497;SDS011;41357;52.806;18.268;2023-11-22T01:42:08;13.10;;;5.30;;
55497;SDS011;41357;52.806;18.268;2023-11-22T01:44:35;14.48;;;4.45;;
55497;SDS011;41357;52.806;18.268;2023-11-22T01:47:01;10.73;;;5.28;;
55497;SDS011;41357;52.806;18.268;2023-11-22T01:49:28;13.43;;;5.20;;
55497;SDS011;41357;52.806;18.268;2023-11-22T01:51:54;10.25;;;4.15;;
55497;SDS011;41357;52.806;18.268;2023-11-22T01:54:21;13.93;;;5.78;;
55497;SDS011;41357;52.806;18.268;2023-11-22T01:56:48;12.30;;;5.43;;
55497;SDS011;41357;52.806;18.268;2023-11-22T01:59:14;9.90;;;4.47;;
55497;SDS011;41357;52.806;18.268;2023-11-22T02:01:40;14.80;;;6.03;;
55497;SDS011;41357;52.806;18.268;2023-11-22T02:04:07;12.35;;;5.15;;
55497;SDS011;41357;52.806;18.268;2023-11-22T02:06:34;11.32;;;4.75;;
55497;SDS011;41357;52.806;18.268;2023-11-22T02:09:02;24.63;;;5.95;;
55497;SDS011;41357;52.806;18.268;2023-11-22T02:11:28;13.95;;;4.38;;
55497;SDS011;41357;52.806;18.268;2023-11-22T02:13:54;9.98;;;4.75;;
55497;SDS011;41357;52.806;18.268;2023-11-22T02:16:20;15.48;;;5.40;;
55497;SDS011;41357;52.806;18.268;2023-11-22T02:18:47;11.68;;;4.47;;
55497;SDS011;41357;52.806;18.268;2023-11-22T02:21:13;11.93;;;4.78;;
55497;SDS011;41357;52.806;18.268;2023-11-22T02:23:40;13.85;;;5.05;;
55497;SDS011;41357;52.806;18.268;2023-11-22T02:26:07;12.23;;;4.68;;
55497;SDS011;41357;52.806;18.268;2023-11-22T02:28:34;12.18;;;5.47;;
55497;SDS011;41357;52.806;18.268;2023-11-22T02:31:00;13.32;;;5.57;;
55497;SDS011;41357;52.806;18.268;2023-11-22T02:33:26;13.32;;;6.07;;
55497;SDS011;41357;52.806;18.268;2023-11-22T02:35:52;12.27;;;4.97;;
55497;SDS011;41357;52.806;18.268;2023-11-22T02:38:19;15.93;;;6.65;;
55497;SDS011;41357;52.806;18.268;2023-11-22T02:40:46;11.70;;;5.07;;
55497;SDS011;41357;52.806;18.268;2023-11-22T02:43:12;17.58;;;4.97;;
55497;SDS011;41357;52.806;18.268;2023-11-22T02:45:39;10.98;;;4.40;;
55497;SDS011;41357;52.806;18.268;2023-11-22T02:48:05;9.77;;;5.55;;
55497;SDS011;41357;52.806;18.268;2023-11-22T02:50:34;25.38;;;6.47;;
55497;SDS011;41357;52.806;18.268;2023-11-22T02:53:02;11.25;;;5.47;;
55497;SDS011;41357;52.806;18.268;2023-11-22T02:55:29;11.63;;;5.32;;
55497;SDS011;41357;52.806;18.268;2023-11-22T02:57:55;12.10;;;5.28;;
55497;SDS011;41357;52.806;18.268;2023-11-22T03:00:21;14.95;;;6.20;;
55497;SDS011;41357;52.806;18.268;2023-11-22T03:02:49;12.82;;;6.20;;
55497;SDS011;41357;52.806;18.268;2023-11-22T03:05:22;13.73;;;6.57;;
55497;SDS011;41357;52.806;18.268;2023-11-22T03:07:49;10.03;;;5.33;;
55497;SDS011;41357;52.806;18.268;2023-11-22T03:10:16;14.05;;;6.07;;
55497;SDS011;41357;52.806;18.268;2023-11-22T03:12:43;12.65;;;5.53;;
55497;SDS011;41357;52.806;18.268;2023-11-22T03:15:09;11.27;;;6.07;;
55497;SDS011;41357;52.806;18.268;2023-11-22T03:17:36;14.05;;;5.90;;
55497;SDS011;41357;52.806;18.268;2023-11-22T03:20:04;14.02;;;5.35;;
55497;SDS011;41357;52.806;18.268;2023-11-22T03:22:34;12.70;;;6.10;;
55497;SDS011;41357;52.806;18.268;2023-11-22T03:25:03;14.27;;;5.75;;
55497;SDS011;41357;52.806;18.268;2023-11-22T03:27:30;9.82;;;5.13;;
55497;SDS011;41357;52.806;18.268;2023-11-22T03:29:56;13.73;;;5.82;;
55497;SDS011;41357;52.806;18.268;2023-11-22T03:32:23;15.40;;;6.28;;
55497;SDS011;41357;52.806;18.268;2023-11-22T03:34:49;10.40;;;5.07;;
55497;SDS011;41357;52.806;18.268;2023-11-22T03:37:16;14.63;;;5.32;;
55497;SDS011;41357;52.806;18.268;2023-11-22T03:39:43;14.35;;;6.13;;
55497;SDS011;41357;52.806;18.268;2023-11-22T03:42:13;11.13;;;6.18;;
55497;SDS011;41357;52.806;18.268;2023-11-22T03:44:40;14.40;;;6.72;;
55497;SDS011;41357;52.806;18.268;2023-11-22T03:47:06;15.98;;;6.85;;
55497;SDS011;41357;52.806;18.268;2023-11-22T03:49:33;15.32;;;7.22;;
55497;SDS011;41357;52.806;18.268;2023-11-22T03:51:59;21.15;;;6.25;;
55497;SDS011;41357;52.806;18.268;2023-11-22T03:54:25;17.60;;;6.60;;
55497;SDS011;41357;52.806;18.268;2023-11-22T03:56:52;15.68;;;7.05;;
55497;SDS011;41357;52.806;18.268;2023-11-22T03:59:18;16.48;;;7.28;;
55497;SDS011;41357;52.806;18.268;2023-11-22T04:01:44;22.92;;;8.57;;
55497;SDS011;41357;52.806;18.268;2023-11-22T04:04:10;22.13;;;7.60;;
55497;SDS011;41357;52.806;18.268;2023-11-22T04:06:36;18.33;;;7.90;;
55497;SDS011;41357;52.806;18.268;2023-11-22T04:09:02;18.90;;;5.97;;
55497;SDS011;41357;52.806;18.268;2023-11-22T04:11:29;12.77;;;6.70;;
55497;SDS011;41357;52.806;18.268;2023-11-22T04:13:55;17.75;;;7.47;;
55497;SDS011;41357;52.806;18.268;2023-11-22T04:16:21;19.73;;;7.65;;
55497;SDS011;41357;52.806;18.268;2023-11-22T04:18:47;16.45;;;7.30;;
55497;SDS011;41357;52.806;18.268;2023-11-22T04:21:13;12.57;;;6.50;;
55497;SDS011;41357;52.806;18.268;2023-11-22T04:23:40;13.40;;;7.20;;
55497;SDS011;41357;52.806;18.268;2023-11-22T04:26:06;21.35;;;7.43;;
55497;SDS011;41357;52.806;18.268;2023-11-22T04:28:33;15.20;;;6.63;;
55497;SDS011;41357;52.806;18.268;2023-11-22T04:30:59;12.10;;;6.20;;
55497;SDS011;41357;52.806;18.268;2023-11-22T04:33:26;19.15;;;6.63;;
55497;SDS011;41357;52.806;18.268;2023-11-22T04:35:55;12.50;;;5.82;;
55497;SDS011;41357;52.806;18.268;2023-11-22T04:38:22;13.07;;;5.80;;
55497;SDS011;41357;52.806;18.268;2023-11-22T04:40:48;9.65;;;5.10;;
55497;SDS011;41357;52.806;18.268;2023-11-22T04:43:14;13.05;;;7.22;;
55497;SDS011;41357;52.806;18.268;2023-11-22T04:45:40;18.95;;;7.00;;
55497;SDS011;41357;52.806;18.268;2023-11-22T04:48:06;13.27;;;5.82;;
55497;SDS011;41357;52.806;18.268;2023-11-22T04:50:32;16.83;;;6.80;;
55497;SDS011;41357;52.806;18.268;2023-11-22T04:52:59;12.80;;;5.70;;
55497;SDS011;41357;52.806;18.268;2023-11-22T04:55:26;13.60;;;6.10;;
55497;SDS011;41357;52.806;18.268;2023-11-22T04:57:53;13.93;;;6.57;;
55497;SDS011;41357;52.806;18.268;2023-11-22T05:00:20;23.17;;;7.25;;
55497;SDS011;41357;52.806;18.268;2023-11-22T05:02:48;16.30;;;6.85;;
55497;SDS011;41357;52.806;18.268;2023-11-22T05:05:14;11.63;;;6.50;;
55497;SDS011;41357;52.806;18.268;2023-11-22T05:07:40;13.40;;;6.50;;
55497;SDS011;41357;52.806;18.268;2023-11-22T05:10:06;23.27;;;8.25;;
55497;SDS011;41357;52.806;18.268;2023-11-22T05:12:36;23.45;;;7.93;;
55497;SDS011;41357;52.806;18.268;2023-11-22T05:15:02;16.38;;;8.38;;
55497;SDS011;41357;52.806;18.268;2023-11-22T05:17:28;18.58;;;7.50;;
55497;SDS011;41357;52.806;18.268;2023-11-22T05:19:55;13.20;;;5.57;;
55497;SDS011;41357;52.806;18.268;2023-11-22T05:22:21;15.60;;;7.50;;
55497;SDS011;41357;52.806;18.268;2023-11-22T05:24:48;22.40;;;6.30;;
55497;SDS011;41357;52.806;18.268;2023-11-22T05:27:14;13.02;;;7.85;;
55497;SDS011;41357;52.806;18.268;2023-11-22T05:29:41;14.35;;;7.43;;
55497;SDS011;41357;52.806;18.268;2023-11-22T05:32:08;18.80;;;7.75;;
55497;SDS011;41357;52.806;18.268;2023-11-22T05:34:34;15.38;;;7.53;;
55497;SDS011;41357;52.806;18.268;2023-11-22T05:37:00;15.85;;;7.88;;
55497;SDS011;41357;52.806;18.268;2023-11-22T05:39:26;14.43;;;6.82;;
55497;SDS011;41357;52.806;18.268;2023-11-22T05:41:53;14.68;;;6.60;;
55497;SDS011;41357;52.806;18.268;2023-11-22T05:44:19;18.52;;;7.43;;
55497;SDS011;41357;52.806;18.268;2023-11-22T05:46:45;13.48;;;5.85;;
55497;SDS011;41357;52.806;18.268;2023-11-22T05:49:11;23.05;;;8.77;;
55497;SDS011;41357;52.806;18.268;2023-11-22T05:51:37;31.08;;;10.27;;
55497;SDS011;41357;52.806;18.268;2023-11-22T05:54:04;17.05;;;7.00;;
55497;SDS011;41357;52.806;18.268;2023-11-22T05:56:30;23.80;;;8.43;;
55497;SDS011;41357;52.806;18.268;2023-11-22T05:58:57;20.27;;;8.85;;
55497;SDS011;41357;52.806;18.268;2023-11-22T06:01:24;25.60;;;9.60;;
55497;SDS011;41357;52.806;18.268;2023-11-22T06:03:51;25.75;;;9.88;;
55497;SDS011;41357;52.806;18.268;2023-11-22T06:06:17;18.08;;;9.50;;
55497;SDS011;41357;52.806;18.268;2023-11-22T06:08:46;26.23;;;10.60;;
55497;SDS011;41357;52.806;18.268;2023-11-22T06:11:13;31.15;;;10.57;;
55497;SDS011;41357;52.806;18.268;2023-11-22T06:13:40;23.42;;;9.95;;
55497;SDS011;41357;52.806;18.268;2023-11-22T06:16:08;16.92;;;9.05;;
55497;SDS011;41357;52.806;18.268;2023-11-22T06:18:34;27.42;;;11.75;;
55497;SDS011;41357;52.806;18.268;2023-11-22T06:21:05;20.00;;;9.07;;
55497;SDS011;41357;52.806;18.268;2023-11-22T06:23:32;21.77;;;9.90;;
55497;SDS011;41357;52.806;18.268;2023-11-22T06:25:58;20.35;;;8.32;;
55497;SDS011;41357;52.806;18.268;2023-11-22T06:28:24;15.82;;;8.20;;
55497;SDS011;41357;52.806;18.268;2023-11-22T06:30:50;17.42;;;9.20;;
55497;SDS011;41357;52.806;18.268;2023-11-22T06:33:16;18.80;;;7.80;;
55497;SDS011;41357;52.806;18.268;2023-11-22T06:35:43;16.48;;;7.18;;
55497;SDS011;41357;52.806;18.268;2023-11-22T06:38:09;17.10;;;7.05;;
55497;SDS011;41357;52.806;18.268;2023-11-22T06:40:35;23.05;;;8.80;;
55497;SDS011;41357;52.806;18.268;2023-11-22T06:43:01;18.05;;;9.25;;
55497;SDS011;41357;52.806;18.268;2023-11-22T06:45:29;19.95;;;8.57;;
55497;SDS011;41357;52.806;18.268;2023-11-22T06:47:56;29.42;;;10.68;;
55497;SDS011;41357;52.806;18.268;2023-11-22T06:50:23;23.48;;;10.48;;
55497;SDS011;41357;52.806;18.268;2023-11-22T06:52:49;22.83;;;9.80;;
55497;SDS011;41357;52.806;18.268;2023-11-22T06:55:17;23.67;;;9.77;;
55497;SDS011;41357;52.806;18.268;2023-11-22T06:57:44;17.98;;;7.85;;
55497;SDS011;41357;52.806;18.268;2023-11-22T07:00:10;19.40;;;10.18;;
55497;SDS011;41357;52.806;18.268;2023-11-22T07:02:37;20.95;;;9.70;;
55497;SDS011;41357;52.806;18.268;2023-11-22T07:05:04;27.08;;;9.27;;
55497;SDS011;41357;52.806;18.268;2023-11-22T07:07:36;20.40;;;8.98;;
55497;SDS011;41357;52.806;18.268;2023-11-22T07:10:03;28.80;;;8.93;;
55497;SDS011;41357;52.806;18.268;2023-11-22T07:12:30;26.00;;;9.65;;
55497;SDS011;41357;52.806;18.268;2023-11-22T07:14:56;25.48;;;10.57;;
55497;SDS011;41357;52.806;18.268;2023-11-22T07:17:24;22.40;;;9.98;;
55497;SDS011;41357;52.806;18.268;2023-11-22T07:19:52;25.42;;;11.23;;
55497;SDS011;41357;52.806;18.268;2023-11-22T07:22:19;35.33;;;12.70;;
55497;SDS011;41357;52.806;18.268;2023-11-22T07:24:47;37.35;;;13.10;;
55497;SDS011;41357;52.806;18.268;2023-11-22T07:27:19;30.67;;;11.05;;
55497;SDS011;41357;52.806;18.268;2023-11-22T07:29:45;24.92;;;11.32;;
55497;SDS011;41357;52.806;18.268;2023-11-22T07:32:12;26.52;;;10.70;;
55497;SDS011;41357;52.806;18.268;2023-11-22T07:34:39;24.63;;;10.85;;
55497;SDS011;41357;52.806;18.268;2023-11-22T07:37:06;30.20;;;11.80;;
55497;SDS011;41357;52.806;18.268;2023-11-22T07:39:33;25.90;;;11.10;;
55497;SDS011;41357;52.806;18.268;2023-11-22T07:42:01;26.58;;;10.70;;
55497;SDS011;41357;52.806;18.268;2023-11-22T07:44:27;31.65;;;11.10;;
55497;SDS011;41357;52.806;18.268;2023-11-22T07:46:57;25.30;;;10.52;;
55497;SDS011;41357;52.806;18.268;2023-11-22T07:49:24;41.10;;;14.68;;
55497;SDS011;41357;52.806;18.268;2023-11-22T07:51:50;38.22;;;13.95;;
55497;SDS011;41357;52.806;18.268;2023-11-22T07:54:20;21.05;;;10.73;;
55497;SDS011;41357;52.806;18.268;2023-11-22T07:56:50;30.92;;;11.82;;
55497;SDS011;41357;52.806;18.268;2023-11-22T07:59:17;21.52;;;9.95;;
55497;SDS011;41357;52.806;18.268;2023-11-22T08:01:44;35.88;;;13.80;;
55497;SDS011;41357;52.806;18.268;2023-11-22T08:04:10;37.05;;;13.65;;
55497;SDS011;41357;52.806;18.268;2023-11-22T08:06:37;26.70;;;13.35;;
55497;SDS011;41357;52.806;18.268;2023-11-22T08:09:03;27.08;;;13.02;;
55497;SDS011;41357;52.806;18.268;2023-11-22T08:11:30;29.38;;;13.13;;
55497;SDS011;41357;52.806;18.268;2023-11-22T08:13:56;27.45;;;11.93;;
55497;SDS011;41357;52.806;18.268;2023-11-22T08:16:24;28.55;;;13.07;;
55497;SDS011;41357;52.806;18.268;2023-11-22T08:18:52;26.10;;;11.88;;
55497;SDS011;41357;52.806;18.268;2023-11-22T08:21:18;25.95;;;11.07;;
55497;SDS011;41357;52.806;18.268;2023-11-22T08:23:47;21.08;;;10.93;;
55497;SDS011;41357;52.806;18.268;2023-11-22T08:26:13;34.88;;;12.13;;
55497;SDS011;41357;52.806;18.268;2023-11-22T08:28:40;22.95;;;10.35;;
55497;SDS011;41357;52.806;18.268;2023-11-22T08:31:06;24.90;;;10.15;;
55497;SDS011;41357;52.806;18.268;2023-11-22T08:33:34;31.98;;;11.30;;
55497;SDS011;41357;52.806;18.268;2023-11-22T08:36:00;28.33;;;11.38;;
55497;SDS011;41357;52.806;18.268;2023-11-22T08:38:29;70.47;;;22.77;;
55497;SDS011;41357;52.806;18.268;2023-11-22T08:41:00;47.90;;;19.42;;
55497;SDS011;41357;52.806;18.268;2023-11-22T08:43:27;24.63;;;11.52;;
55497;SDS011;41357;52.806;18.268;2023-11-22T08:45:53;28.70;;;11.20;;
55497;SDS011;41357;52.806;18.268;2023-11-22T08:48:19;24.95;;;10.32;;
55497;SDS011;41357;52.806;18.268;2023-11-22T08:50:46;29.10;;;13.73;;
55497;SDS011;41357;52.806;18.268;2023-11-22T08:53:13;16.83;;;8.18;;
55497;SDS011;41357;52.806;18.268;2023-11-22T08:55:40;22.52;;;10.57;;
55497;SDS011;41357;52.806;18.268;2023-11-22T08:58:10;19.38;;;9.60;;
55497;SDS011;41357;52.806;18.268;2023-11-22T09:00:36;14.05;;;6.93;;
55497;SDS011;41357;52.806;18.268;2023-11-22T09:03:02;15.05;;;6.97;;
55497;SDS011;41357;52.806;18.268;2023-11-22T09:05:28;22.52;;;7.20;;
55497;SDS011;41357;52.806;18.268;2023-11-22T09:07:54;17.05;;;6.60;;
55497;SDS011;41357;52.806;18.268;2023-11-22T09:10:21;14.07;;;6.50;;
55497;SDS011;41357;52.806;18.268;2023-11-22T09:12:47;16.35;;;7.00;;
55497;SDS011;41357;52.806;18.268;2023-11-22T09:15:14;18.35;;;8.35;;
55497;SDS011;41357;52.806;18.268;2023-11-22T09:17:42;19.17;;;9.02;;
55497;SDS011;41357;52.806;18.268;2023-11-22T09:20:12;17.60;;;9.07;;
55497;SDS011;41357;52.806;18.268;2023-11-22T09:22:42;14.55;;;7.18;;
55497;SDS011;41357;52.806;18.268;2023-11-22T09:25:18;12.52;;;6.25;;
55497;SDS011;41357;52.806;18.268;2023-11-22T09:27:44;11.48;;;5.75;;
55497;SDS011;41357;52.806;18.268;2023-11-22T09:30:15;25.75;;;8.93;;
55497;SDS011;41357;52.806;18.268;2023-11-22T09:32:45;16.08;;;6.43;;
55497;SDS011;41357;52.806;18.268;2023-11-22T09:35:14;10.80;;;5.90;;
55497;SDS011;41357;52.806;18.268;2023-11-22T09:37:41;9.82;;;4.88;;
55497;SDS011;41357;52.806;18.268;2023-11-22T09:40:08;7.40;;;3.83;;
55497;SDS011;41357;52.806;18.268;2023-11-22T09:42:35;8.45;;;3.67;;
55497;SDS011;41357;52.806;18.268;2023-11-22T09:45:02;11.05;;;5.13;;
55497;SDS011;41357;52.806;18.268;2023-11-22T09:47:29;10.82;;;5.20;;
55497;SDS011;41357;52.806;18.268;2023-11-22T09:50:00;11.77;;;5.28;;
55497;SDS011;41357;52.806;18.268;2023-11-22T09:52:30;18.55;;;7.82;;
55497;SDS011;41357;52.806;18.268;2023-11-22T09:54:59;17.67;;;8.65;;
55497;SDS011;41357;52.806;18.268;2023-11-22T09:57:26;13.52;;;5.88;;
55497;SDS011;41357;52.806;18.268;2023-11-22T09:59:54;10.10;;;5.18;;
55497;SDS011;41357;52.806;18.268;2023-11-22T10:02:22;13.20;;;6.15;;
55497;SDS011;41357;52.806;18.268;2023-11-22T10:04:52;13.70;;;5.63;;
55497;SDS011;41357;52.806;18.268;2023-11-22T10:07:18;15.38;;;6.47;;
55497;SDS011;41357;52.806;18.268;2023-11-22T10:09:44;13.98;;;6.05;;
55497;SDS011;41357;52.806;18.268;2023-11-22T10:12:11;20.83;;;6.20;;
55497;SDS011;41357;52.806;18.268;2023-11-22T10:14:40;17.38;;;7.40;;
55497;SDS011;41357;52.806;18.268;2023-11-22T10:17:06;20.67;;;8.00;;
55497;SDS011;41357;52.806;18.268;2023-11-22T10:19:33;18.20;;;6.40;;
55497;SDS011;41357;52.806;18.268;2023-11-22T10:22:03;16.42;;;7.25;;
55497;SDS011;41357;52.806;18.268;2023-11-22T10:24:30;16.77;;;6.78;;
55497;SDS011;41357;52.806;18.268;2023-11-22T10:27:00;17.88;;;6.45;;
55497;SDS011;41357;52.806;18.268;2023-11-22T10:29:26;19.33;;;9.73;;
55497;SDS011;41357;52.806;18.268;2023-11-22T10:31:52;11.63;;;6.40;;
55497;SDS011;41357;52.806;18.268;2023-11-22T10:34:20;19.08;;;7.45;;
55497;SDS011;41357;52.806;18.268;2023-11-22T10:36:47;16.70;;;7.90;;
55497;SDS011;41357;52.806;18.268;2023-11-22T10:39:18;16.35;;;6.75;;
55497;SDS011;41357;52.806;18.268;2023-11-22T10:41:44;16.73;;;7.18;;
55497;SDS011;41357;52.806;18.268;2023-11-22T10:44:11;15.10;;;5.80;;
55497;SDS011;41357;52.806;18.268;2023-11-22T10:46:38;18.42;;;7.18;;
55497;SDS011;41357;52.806;18.268;2023-11-22T10:49:05;18.02;;;7.43;;
55497;SDS011;41357;52.806;18.268;2023-11-22T10:51:32;20.83;;;8.43;;
55497;SDS011;41357;52.806;18.268;2023-11-22T10:53:59;18.05;;;7.90;;
55497;SDS011;41357;52.806;18.268;2023-11-22T10:56:29;21.60;;;9.03;;
55497;SDS011;41357;52.806;18.268;2023-11-22T10:58:58;18.10;;;7.82;;
55497;SDS011;41357;52.806;18.268;2023-11-22T11:01:24;22.58;;;8.88;;
55497;SDS011;41357;52.806;18.268;2023-11-22T11:06:20;17.80;;;7.15;;
55497;SDS011;41357;52.806;18.268;2023-11-22T11:08:52;10.55;;;4.97;;
55497;SDS011;41357;52.806;18.268;2023-11-22T11:11:19;10.85;;;5.60;;
55497;SDS011;41357;52.806;18.268;2023-11-22T11:13:45;21.20;;;6.63;;
55497;SDS011;41357;52.806;18.268;2023-11-22T11:16:13;12.88;;;6.32;;
55497;SDS011;41357;52.806;18.268;2023-11-22T11:18:39;15.13;;;6.15;;
55497;SDS011;41357;52.806;18.268;2023-11-22T11:21:08;10.00;;;6.10;;
55497;SDS011;41357;52.806;18.268;2023-11-22T11:23:38;12.90;;;5.57;;
55497;SDS011;41357;52.806;18.268;2023-11-22T11:28:49;14.77;;;7.80;;
55497;SDS011;41357;52.806;18.268;2023-11-22T11:31:16;17.30;;;7.25;;
55497;SDS011;41357;52.806;18.268;2023-11-22T11:34:05;14.30;;;5.93;;
55497;SDS011;41357;52.806;18.268;2023-11-22T11:36:30;10.93;;;5.70;;
55497;SDS011;41357;52.806;18.268;2023-11-22T11:39:00;7.68;;;4.53;;
55497;SDS011;41357;52.806;18.268;2023-11-22T11:43:55;13.07;;;5.43;;
55497;SDS011;41357;52.806;18.268;2023-11-22T11:46:21;12.82;;;4.65;;
55497;SDS011;41357;52.806;18.268;2023-11-22T11:48:48;15.48;;;5.82;;
55497;SDS011;41357;52.806;18.268;2023-11-22T11:51:16;14.38;;;5.93;;
55497;SDS011;41357;52.806;18.268;2023-11-22T11:53:42;13.02;;;6.43;;
55497;SDS011;41357;52.806;18.268;2023-11-22T11:56:09;16.85;;;7.32;;
55497;SDS011;41357;52.806;18.268;2023-11-22T11:58:35;12.55;;;6.03;;
55497;SDS011;41357;52.806;18.268;2023-11-22T12:01:03;17.30;;;8.10;;
55497;SDS011;41357;52.806;18.268;2023-11-22T12:03:29;14.80;;;5.85;;
55497;SDS011;41357;52.806;18.268;2023-11-22T12:05:56;14.88;;;8.55;;
55497;SDS011;41357;52.806;18.268;2023-11-22T12:08:22;15.38;;;6.55;;
55497;SDS011;41357;52.806;18.268;2023-11-22T12:10:48;9.20;;;5.25;;
55497;SDS011;41357;52.806;18.268;2023-11-22T12:13:18;13.52;;;5.88;;
55497;SDS011;41357;52.806;18.268;2023-11-22T12:15:44;11.13;;;5.70;;
55497;SDS011;41357;52.806;18.268;2023-11-22T12:18:10;12.60;;;5.63;;
55497;SDS011;41357;52.806;18.268;2023-11-22T12:20:37;17.67;;;6.47;;
55497;SDS011;41357;52.806;18.268;2023-11-22T12:23:03;9.77;;;5.00;;
55497;SDS011;41357;52.806;18.268;2023-11-22T12:25:30;11.20;;;5.60;;
55497;SDS011;41357;52.806;18.268;2023-11-22T12:27:56;11.32;;;6.03;;
55497;SDS011;41357;52.806;18.268;2023-11-22T12:33:08;22.05;;;7.72;;
55497;SDS011;41357;52.806;18.268;2023-11-22T12:35:35;16.05;;;7.90;;
55497;SDS011;41357;52.806;18.268;2023-11-22T12:38:02;17.55;;;8.27;;
55497;SDS011;41357;52.806;18.268;2023-11-22T12:40:30;16.42;;;7.25;;
55497;SDS011;41357;52.806;18.268;2023-11-22T12:42:58;15.27;;;6.22;;
55497;SDS011;41357;52.806;18.268;2023-11-22T12:45:26;13.98;;;6.03;;
55497;SDS011;41357;52.806;18.268;2023-11-22T12:47:53;13.70;;;6.15;;
55497;SDS011;41357;52.806;18.268;2023-11-22T12:50:32;13.48;;;4.95;;
55497;SDS011;41357;52.806;18.268;2023-11-22T12:55:41;15.00;;;7.10;;
55497;SDS011;41357;52.806;18.268;2023-11-22T12:58:11;20.05;;;5.57;;
55497;SDS011;41357;52.806;18.268;2023-11-22T13:00:40;24.52;;;6.95;;
55497;SDS011;41357;52.806;18.268;2023-11-22T13:03:07;12.60;;;5.13;;
55497;SDS011;41357;52.806;18.268;2023-11-22T13:05:40;13.82;;;5.68;;
55497;SDS011;41357;52.806;18.268;2023-11-22T13:08:11;14.77;;;5.15;;
55497;SDS011;41357;52.806;18.268;2023-11-22T13:10:47;12.48;;;5.55;;
55497;SDS011;41357;52.806;18.268;2023-11-22T13:13:20;16.00;;;5.80;;
55497;SDS011;41357;52.806;18.268;2023-11-22T13:15:47;17.15;;;6.28;;
55497;SDS011;41357;52.806;18.268;2023-11-22T13:18:14;19.38;;;7.13;;
55497;SDS011;41357;52.806;18.268;2023-11-22T13:20:41;21.52;;;8.80;;
55497;SDS011;41357;52.806;18.268;2023-11-22T13:23:07;24.00;;;10.00;;
55497;SDS011;41357;52.806;18.268;2023-11-22T13:25:34;18.50;;;7.10;;
55497;SDS011;41357;52.806;18.268;2023-11-22T13:28:00;17.50;;;7.88;;
55497;SDS011;41357;52.806;18.268;2023-11-22T13:30:27;16.50;;;7.88;;
55497;SDS011;41357;52.806;18.268;2023-11-22T13:32:54;17.52;;;7.43;;
55497;SDS011;41357;52.806;18.268;2023-11-22T13:35:23;22.50;;;8.18;;
55497;SDS011;41357;52.806;18.268;2023-11-22T13:37:52;21.30;;;6.60;;
55497;SDS011;41357;52.806;18.268;2023-11-22T13:40:19;14.73;;;6.90;;
55497;SDS011;41357;52.806;18.268;2023-11-22T13:42:51;16.20;;;6.30;;
55497;SDS011;41357;52.806;18.268;2023-11-22T13:45:18;14.00;;;5.22;;
55497;SDS011;41357;52.806;18.268;2023-11-22T13:47:44;14.00;;;5.95;;
55497;SDS011;41357;52.806;18.268;2023-11-22T13:50:12;15.70;;;6.05;;
55497;SDS011;41357;52.806;18.268;2023-11-22T13:52:39;23.55;;;8.10;;
55497;SDS011;41357;52.806;18.268;2023-11-22T13:55:06;15.93;;;7.85;;
55497;SDS011;41357;52.806;18.268;2023-11-22T13:57:37;18.55;;;7.20;;
55497;SDS011;41357;52.806;18.268;2023-11-22T14:00:04;21.63;;;7.85;;
55497;SDS011;41357;52.806;18.268;2023-11-22T14:02:45;16.98;;;7.57;;
55497;SDS011;41357;52.806;18.268;2023-11-22T14:05:12;18.48;;;8.75;;
55497;SDS011;41357;52.806;18.268;2023-11-22T14:07:38;19.75;;;7.95;;
55497;SDS011;41357;52.806;18.268;2023-11-22T14:10:04;17.02;;;6.53;;
55497;SDS011;41357;52.806;18.268;2023-11-22T14:12:31;23.58;;;10.77;;
55497;SDS011;41357;52.806;18.268;2023-11-22T14:14:58;33.08;;;12.40;;
55497;SDS011;41357;52.806;18.268;2023-11-22T14:17:25;35.35;;;10.93;;
55497;SDS011;41357;52.806;18.268;2023-11-22T14:19:54;29.55;;;8.95;;
55497;SDS011;41357;52.806;18.268;2023-11-22T14:22:21;27.65;;;9.07;;
55497;SDS011;41357;52.806;18.268;2023-11-22T14:24:50;28.27;;;10.23;;
55497;SDS011;41357;52.806;18.268;2023-11-22T14:27:17;28.90;;;11.90;;
55497;SDS011;41357;52.806;18.268;2023-11-22T14:29:44;26.42;;;10.85;;
55497;SDS011;41357;52.806;18.268;2023-11-22T14:32:14;22.88;;;10.15;;
55497;SDS011;41357;52.806;18.268;2023-11-22T14:34:40;40.45;;;13.48;;